sensor_id;sensor_type;location;lat;lon;timestamp;pressure;altitude;pressure_sealevel;temperature;humidity
12213;BME280;6169;44.158;22.788;2024-03-23T00:53:21;101153.63;;;2.50;62.87
12213;BME280;6169;44.158;22.788;2024-03-23T00:58:23;101143.53;;;2.21;63.22
12213;BME280;6169;44.158;22.788;2024-03-23T01:03:25;101151.97;;;2.18;63.44
12213;BME280;6169;44.158;22.788;2024-03-23T01:08:28;101144.63;;;1.72;64.46
12213;BME280;6169;44.158;22.788;2024-03-23T01:13:30;101147.59;;;2.71;62.33
12213;BME280;6169;44.158;22.788;2024-03-23T01:18:32;101146.66;;;2.32;62.09
12213;BME280;6169;44.158;22.788;2024-03-23T01:23:36;101139.34;;;2.72;61.58
12213;BME280;6169;44.158;22.788;2024-03-23T01:28:38;101136.47;;;2.74;61.65
12213;BME280;6169;44.158;22.788;2024-03-23T01:33:40;101144.88;;;2.56;60.49
12213;BME280;6169;44.158;22.788;2024-03-23T01:38:43;101137.31;;;1.97;62.14
12213;BME280;6169;44.158;22.788;2024-03-23T01:43:45;101145.75;;;1.86;63.39
12213;BME280;6169;44.158;22.788;2024-03-23T01:48:48;101104.63;;;2.17;61.26
12213;BME280;6169;44.158;22.788;2024-03-23T01:53:53;101143.78;;;2.65;60.27
12213;BME280;6169;44.158;22.788;2024-03-23T01:58:56;101130.88;;;2.29;61.28
12213;BME280;6169;44.158;22.788;2024-03-23T02:03:58;101137.66;;;1.55;63.15
12213;BME280;6169;44.158;22.788;2024-03-23T02:09:02;101139.25;;;2.12;61.58
12213;BME280;6169;44.158;22.788;2024-03-23T02:14:06;101135.94;;;1.62;61.88
12213;BME280;6169;44.158;22.788;2024-03-23T02:19:08;101133.66;;;1.43;62.13
12213;BME280;6169;44.158;22.788;2024-03-23T02:24:12;101131.56;;;1.05;64.86
12213;BME280;6169;44.158;22.788;2024-03-23T02:29:14;101127.38;;;1.03;64.58
12213;BME280;6169;44.158;22.788;2024-03-23T02:34:16;101116.16;;;0.99;64.41
12213;BME280;6169;44.158;22.788;2024-03-23T02:39:19;101124.38;;;0.89;65.34
12213;BME280;6169;44.158;22.788;2024-03-23T02:44:22;101119.03;;;0.81;65.13
12213;BME280;6169;44.158;22.788;2024-03-23T02:49:24;101118.66;;;1.09;66.05
12213;BME280;6169;44.158;22.788;2024-03-23T02:54:27;101117.94;;;1.31;65.13
12213;BME280;6169;44.158;22.788;2024-03-23T02:59:29;101114.66;;;0.88;65.80
12213;BME280;6169;44.158;22.788;2024-03-23T03:04:31;101109.16;;;0.82;66.54
12213;BME280;6169;44.158;22.788;2024-03-23T03:09:35;101115.50;;;0.89;65.49
12213;BME280;6169;44.158;22.788;2024-03-23T03:14:39;101109.31;;;0.64;66.46
12213;BME280;6169;44.158;22.788;2024-03-23T03:19:41;101104.13;;;0.62;66.17
12213;BME280;6169;44.158;22.788;2024-03-23T03:24:44;101112.00;;;0.64;66.30
12213;BME280;6169;44.158;22.788;2024-03-23T03:29:47;101115.69;;;0.63;66.39
12213;BME280;6169;44.158;22.788;2024-03-23T03:34:49;101113.50;;;0.58;66.11
12213;BME280;6169;44.158;22.788;2024-03-23T03:39:52;101116.03;;;0.76;65.90
12213;BME280;6169;44.158;22.788;2024-03-23T03:44:54;101112.13;;;0.95;64.63
12213;BME280;6169;44.158;22.788;2024-03-23T03:49:56;101119.34;;;1.03;63.07
12213;BME280;6169;44.158;22.788;2024-03-23T03:55:03;101116.38;;;0.73;64.79
12213;BME280;6169;44.158;22.788;2024-03-23T04:00:07;101110.34;;;0.63;66.73
12213;BME280;6169;44.158;22.788;2024-03-23T04:05:11;101109.78;;;0.92;65.43
12213;BME280;6169;44.158;22.788;2024-03-23T04:10:15;101118.72;;;0.60;63.73
12213;BME280;6169;44.158;22.788;2024-03-23T04:15:17;101119.88;;;0.49;66.44
12213;BME280;6169;44.158;22.788;2024-03-23T04:20:19;101122.72;;;0.64;65.44
12213;BME280;6169;44.158;22.788;2024-03-23T04:25:22;101114.31;;;0.18;65.89
12213;BME280;6169;44.158;22.788;2024-03-23T04:30:24;101115.81;;;0.12;66.61
12213;BME280;6169;44.158;22.788;2024-03-23T04:35:28;101114.16;;;0.44;65.78
12213;BME280;6169;44.158;22.788;2024-03-23T04:40:32;101115.50;;;0.23;68.16
12213;BME280;6169;44.158;22.788;2024-03-23T04:45:34;101119.84;;;0.33;67.28
12213;BME280;6169;44.158;22.788;2024-03-23T04:50:36;101122.91;;;0.70;64.44
12213;BME280;6169;44.158;22.788;2024-03-23T04:55:40;101130.44;;;0.50;66.81
12213;BME280;6169;44.158;22.788;2024-03-23T05:00:42;101126.91;;;0.74;67.40
12213;BME280;6169;44.158;22.788;2024-03-23T05:05:44;101126.06;;;1.07;64.84
12213;BME280;6169;44.158;22.788;2024-03-23T05:10:47;101116.78;;;1.17;65.49
12213;BME280;6169;44.158;22.788;2024-03-23T05:15:52;101113.88;;;1.44;64.63
12213;BME280;6169;44.158;22.788;2024-03-23T05:20:56;101109.09;;;1.62;64.21
12213;BME280;6169;44.158;22.788;2024-03-23T05:25:59;101109.16;;;1.46;65.72
12213;BME280;6169;44.158;22.788;2024-03-23T05:31:02;101107.38;;;2.08;62.97
12213;BME280;6169;44.158;22.788;2024-03-23T05:36:05;101071.75;;;1.83;62.88
12213;BME280;6169;44.158;22.788;2024-03-23T05:41:10;101099.22;;;2.48;62.41
12213;BME280;6169;44.158;22.788;2024-03-23T05:46:13;101091.31;;;2.46;63.09
12213;BME280;6169;44.158;22.788;2024-03-23T05:51:15;101104.19;;;2.74;62.96
12213;BME280;6169;44.158;22.788;2024-03-23T05:56:19;101106.59;;;3.07;62.95
12213;BME280;6169;44.158;22.788;2024-03-23T06:01:22;101094.63;;;3.24;63.35
12213;BME280;6169;44.158;22.788;2024-03-23T06:06:24;101098.97;;;3.10;62.21
12213;BME280;6169;44.158;22.788;2024-03-23T06:11:28;101012.47;;;2.69;64.24
12213;BME280;6169;44.158;22.788;2024-03-23T06:16:30;101094.34;;;3.19;64.52
12213;BME280;6169;44.158;22.788;2024-03-23T06:21:32;101096.53;;;3.75;63.64
12213;BME280;6169;44.158;22.788;2024-03-23T06:26:35;101102.34;;;3.93;65.43
12213;BME280;6169;44.158;22.788;2024-03-23T06:31:37;101103.75;;;4.25;64.73
12213;BME280;6169;44.158;22.788;2024-03-23T06:36:39;101114.63;;;4.32;65.01
12213;BME280;6169;44.158;22.788;2024-03-23T06:41:52;101106.28;;;4.12;67.68
12213;BME280;6169;44.158;22.788;2024-03-23T06:46:54;101110.91;;;3.97;69.33
12213;BME280;6169;44.158;22.788;2024-03-23T06:51:56;101114.25;;;4.20;68.26
12213;BME280;6169;44.158;22.788;2024-03-23T06:56:59;101115.28;;;4.19;67.80
12213;BME280;6169;44.158;22.788;2024-03-23T07:02:01;101105.88;;;4.51;67.48
12213;BME280;6169;44.158;22.788;2024-03-23T07:07:04;101114.13;;;5.21;63.50
12213;BME280;6169;44.158;22.788;2024-03-23T07:12:07;101096.41;;;5.47;62.30
12213;BME280;6169;44.158;22.788;2024-03-23T07:17:09;101095.03;;;5.71;61.16
12213;BME280;6169;44.158;22.788;2024-03-23T07:22:11;101090.47;;;6.32;57.40
12213;BME280;6169;44.158;22.788;2024-03-23T07:27:15;101084.66;;;6.55;58.16
12213;BME280;6169;44.158;22.788;2024-03-23T07:32:17;101071.09;;;7.15;55.90
12213;BME280;6169;44.158;22.788;2024-03-23T07:37:19;101066.69;;;7.34;55.15
12213;BME280;6169;44.158;22.788;2024-03-23T07:42:23;101057.16;;;7.70;53.56
12213;BME280;6169;44.158;22.788;2024-03-23T07:47:27;101054.97;;;7.92;53.04
12213;BME280;6169;44.158;22.788;2024-03-23T07:52:29;101048.72;;;7.47;58.02
12213;BME280;6169;44.158;22.788;2024-03-23T07:57:32;101048.16;;;7.83;57.28
12213;BME280;6169;44.158;22.788;2024-03-23T08:02:34;101046.97;;;8.04;54.82
12213;BME280;6169;44.158;22.788;2024-03-23T08:07:36;101047.53;;;7.81;53.38
12213;BME280;6169;44.158;22.788;2024-03-23T08:12:40;101045.91;;;8.68;50.35
12213;BME280;6169;44.158;22.788;2024-03-23T08:17:42;101037.38;;;8.65;50.20
12213;BME280;6169;44.158;22.788;2024-03-23T08:22:44;101027.31;;;9.45;45.01
12213;BME280;6169;44.158;22.788;2024-03-23T08:27:48;101020.09;;;9.21;45.36
12213;BME280;6169;44.158;22.788;2024-03-23T08:32:50;101010.72;;;9.35;46.01
12213;BME280;6169;44.158;22.788;2024-03-23T08:37:52;101010.56;;;9.12;48.12
12213;BME280;6169;44.158;22.788;2024-03-23T08:42:55;101002.91;;;9.76;44.08
12213;BME280;6169;44.158;22.788;2024-03-23T08:47:57;101000.47;;;9.37;43.85
12213;BME280;6169;44.158;22.788;2024-03-23T08:52:59;100993.16;;;10.75;42.59
12213;BME280;6169;44.158;22.788;2024-03-23T08:58:03;100980.53;;;10.27;41.23
12213;BME280;6169;44.158;22.788;2024-03-23T09:03:09;100982.38;;;9.61;41.20
12213;BME280;6169;44.158;22.788;2024-03-23T09:08:11;100965.63;;;10.18;42.46
12213;BME280;6169;44.158;22.788;2024-03-23T09:13:14;100965.69;;;10.53;41.22
12213;BME280;6169;44.158;22.788;2024-03-23T09:18:17;100961.47;;;10.04;40.61
12213;BME280;6169;44.158;22.788;2024-03-23T09:23:19;100949.28;;;10.06;41.01
12213;BME280;6169;44.158;22.788;2024-03-23T09:28:22;100939.00;;;10.55;40.50
12213;BME280;6169;44.158;22.788;2024-03-23T09:33:24;100929.19;;;10.90;40.33
12213;BME280;6169;44.158;22.788;2024-03-23T09:38:26;100919.84;;;11.26;38.80
12213;BME280;6169;44.158;22.788;2024-03-23T09:43:30;100906.91;;;11.33;40.06
12213;BME280;6169;44.158;22.788;2024-03-23T09:48:32;100905.84;;;11.51;39.42
12213;BME280;6169;44.158;22.788;2024-03-23T09:53:35;100883.13;;;11.45;38.95
12213;BME280;6169;44.158;22.788;2024-03-23T09:58:38;100871.84;;;12.04;38.86
12213;BME280;6169;44.158;22.788;2024-03-23T10:03:44;100730.22;;;12.03;38.03
12213;BME280;6169;44.158;22.788;2024-03-23T10:08:46;100863.38;;;13.27;36.92
12213;BME280;6169;44.158;22.788;2024-03-23T10:13:49;100850.13;;;13.41;37.53
12213;BME280;6169;44.158;22.788;2024-03-23T10:18:51;100842.63;;;12.60;38.42
12213;BME280;6169;44.158;22.788;2024-03-23T10:23:53;100831.97;;;13.95;37.64
12213;BME280;6169;44.158;22.788;2024-03-23T10:28:58;100821.66;;;13.37;38.12
12213;BME280;6169;44.158;22.788;2024-03-23T10:34:02;100822.88;;;12.53;39.29
12213;BME280;6169;44.158;22.788;2024-03-23T10:39:05;100810.34;;;13.61;39.28
12213;BME280;6169;44.158;22.788;2024-03-23T10:44:11;100795.56;;;14.42;38.06
12213;BME280;6169;44.158;22.788;2024-03-23T10:49:13;100796.09;;;14.44;37.31
12213;BME280;6169;44.158;22.788;2024-03-23T10:54:15;100776.97;;;13.96;37.99
12213;BME280;6169;44.158;22.788;2024-03-23T10:59:19;100765.94;;;13.81;37.62
12213;BME280;6169;44.158;22.788;2024-03-23T11:04:33;100746.84;;;13.59;38.94
12213;BME280;6169;44.158;22.788;2024-03-23T11:09:38;100734.09;;;14.17;37.45
12213;BME280;6169;44.158;22.788;2024-03-23T11:14:42;100721.88;;;14.40;36.95
12213;BME280;6169;44.158;22.788;2024-03-23T11:19:44;100704.75;;;15.21;35.46
12213;BME280;6169;44.158;22.788;2024-03-23T11:24:50;100704.75;;;15.47;35.10
12213;BME280;6169;44.158;22.788;2024-03-23T11:29:53;100693.41;;;15.94;33.65
12213;BME280;6169;44.158;22.788;2024-03-23T11:34:55;100681.38;;;16.45;33.20
12213;BME280;6169;44.158;22.788;2024-03-23T11:39:57;100669.47;;;16.05;32.61
12213;BME280;6169;44.158;22.788;2024-03-23T11:45:09;100657.75;;;15.79;32.57
12213;BME280;6169;44.158;22.788;2024-03-23T11:50:19;100623.00;;;15.44;32.29
12213;BME280;6169;44.158;22.788;2024-03-23T11:55:21;100633.03;;;15.84;31.58
12213;BME280;6169;44.158;22.788;2024-03-23T12:00:26;100604.88;;;15.48;30.79
12213;BME280;6169;44.158;22.788;2024-03-23T12:05:31;100602.03;;;15.74;30.88
12213;BME280;6169;44.158;22.788;2024-03-23T12:10:34;100589.53;;;16.56;30.44
12213;BME280;6169;44.158;22.788;2024-03-23T12:15:38;100572.94;;;15.78;30.91
12213;BME280;6169;44.158;22.788;2024-03-23T12:20:40;100552.50;;;15.39;31.42
12213;BME280;6169;44.158;22.788;2024-03-23T12:25:42;100550.56;;;15.40;32.08
12213;BME280;6169;44.158;22.788;2024-03-23T12:30:46;100541.00;;;15.27;33.29
12213;BME280;6169;44.158;22.788;2024-03-23T12:35:48;100529.81;;;16.33;31.37
12213;BME280;6169;44.158;22.788;2024-03-23T12:40:50;100526.59;;;14.70;33.43
12213;BME280;6169;44.158;22.788;2024-03-23T12:45:54;100507.75;;;15.49;32.77
12213;BME280;6169;44.158;22.788;2024-03-23T12:50:56;100503.78;;;15.76;32.37
12213;BME280;6169;44.158;22.788;2024-03-23T12:55:58;100494.75;;;16.49;31.18
12213;BME280;6169;44.158;22.788;2024-03-23T13:01:02;100479.22;;;16.34;31.78
12213;BME280;6169;44.158;22.788;2024-03-23T13:06:04;100469.91;;;16.30;31.30
12213;BME280;6169;44.158;22.788;2024-03-23T13:11:08;100466.72;;;17.48;29.46
12213;BME280;6169;44.158;22.788;2024-03-23T13:16:12;100456.53;;;18.24;29.72
12213;BME280;6169;44.158;22.788;2024-03-23T13:21:14;100444.22;;;17.84;28.43
12213;BME280;6169;44.158;22.788;2024-03-23T13:26:17;100440.66;;;17.83;28.87
12213;BME280;6169;44.158;22.788;2024-03-23T13:31:20;100432.13;;;18.50;28.12
12213;BME280;6169;44.158;22.788;2024-03-23T13:36:22;100430.91;;;17.72;29.76
12213;BME280;6169;44.158;22.788;2024-03-23T13:41:24;100417.34;;;18.41;29.31
12213;BME280;6169;44.158;22.788;2024-03-23T13:46:29;100412.25;;;18.81;26.52
12213;BME280;6169;44.158;22.788;2024-03-23T13:51:31;100401.06;;;19.41;25.75
12213;BME280;6169;44.158;22.788;2024-03-23T13:56:33;100395.34;;;19.38;26.05
12213;BME280;6169;44.158;22.788;2024-03-23T14:01:37;100394.66;;;19.04;25.79
12213;BME280;6169;44.158;22.788;2024-03-23T14:06:39;100383.31;;;19.06;25.66
12213;BME280;6169;44.158;22.788;2024-03-23T14:11:42;100378.19;;;19.13;25.50
12213;BME280;6169;44.158;22.788;2024-03-23T14:16:46;100378.59;;;19.34;25.79
12213;BME280;6169;44.158;22.788;2024-03-23T14:21:48;100372.63;;;19.41;25.93
12213;BME280;6169;44.158;22.788;2024-03-23T14:26:50;100362.38;;;18.77;26.02
12213;BME280;6169;44.158;22.788;2024-03-23T14:31:53;100357.78;;;19.00;26.01
12213;BME280;6169;44.158;22.788;2024-03-23T14:36:56;100355.53;;;18.89;25.70
12213;BME280;6169;44.158;22.788;2024-03-23T14:41:58;100346.25;;;18.71;26.19
12213;BME280;6169;44.158;22.788;2024-03-23T14:47:01;100344.72;;;18.92;25.48
12213;BME280;6169;44.158;22.788;2024-03-23T14:52:04;100337.16;;;18.98;25.52
12213;BME280;6169;44.158;22.788;2024-03-23T14:57:06;100328.66;;;18.94;26.11
12213;BME280;6169;44.158;22.788;2024-03-23T15:02:11;100328.56;;;18.86;26.16
12213;BME280;6169;44.158;22.788;2024-03-23T15:07:13;100320.03;;;18.59;26.04
12213;BME280;6169;44.158;22.788;2024-03-23T15:12:15;100284.09;;;18.51;25.50
12213;BME280;6169;44.158;22.788;2024-03-23T15:17:19;100313.97;;;18.16;26.01
12213;BME280;6169;44.158;22.788;2024-03-23T15:22:22;100310.19;;;18.39;26.00
12213;BME280;6169;44.158;22.788;2024-03-23T15:27:24;100312.53;;;18.32;26.17
12213;BME280;6169;44.158;22.788;2024-03-23T15:32:27;100309.94;;;17.94;26.13
12213;BME280;6169;44.158;22.788;2024-03-23T15:37:31;100303.63;;;18.08;26.41
12213;BME280;6169;44.158;22.788;2024-03-23T15:42:34;100308.28;;;17.80;27.16
12213;BME280;6169;44.158;22.788;2024-03-23T15:47:38;100295.31;;;17.80;26.96
12213;BME280;6169;44.158;22.788;2024-03-23T15:52:40;100292.03;;;17.78;27.53
12213;BME280;6169;44.158;22.788;2024-03-23T15:57:42;100291.56;;;17.38;27.34
12213;BME280;6169;44.158;22.788;2024-03-23T16:02:46;100275.91;;;17.01;28.10
12213;BME280;6169;44.158;22.788;2024-03-23T16:07:48;100290.13;;;16.84;27.89
12213;BME280;6169;44.158;22.788;2024-03-23T16:12:50;100277.50;;;16.40;28.76
12213;BME280;6169;44.158;22.788;2024-03-23T16:17:54;100270.97;;;16.55;28.76
12213;BME280;6169;44.158;22.788;2024-03-23T16:22:56;100271.44;;;16.19;29.03
12213;BME280;6169;44.158;22.788;2024-03-23T16:27:58;100260.47;;;15.85;29.39
12213;BME280;6169;44.158;22.788;2024-03-23T16:33:02;100256.94;;;15.55;29.49
12213;BME280;6169;44.158;22.788;2024-03-23T16:38:04;100258.81;;;15.20;30.10
12213;BME280;6169;44.158;22.788;2024-03-23T16:43:06;100258.03;;;14.75;30.78
12213;BME280;6169;44.158;22.788;2024-03-23T16:48:10;100259.03;;;14.14;32.35
12213;BME280;6169;44.158;22.788;2024-03-23T16:53:12;100142.59;;;13.47;31.96
12213;BME280;6169;44.158;22.788;2024-03-23T16:58:14;100251.75;;;13.74;32.69
12213;BME280;6169;44.158;22.788;2024-03-23T17:03:17;100256.63;;;13.57;32.91
12213;BME280;6169;44.158;22.788;2024-03-23T17:08:20;100255.56;;;13.68;33.34
12213;BME280;6169;44.158;22.788;2024-03-23T17:13:22;100252.28;;;13.40;33.87
12213;BME280;6169;44.158;22.788;2024-03-23T17:18:26;100264.81;;;12.95;34.58
12213;BME280;6169;44.158;22.788;2024-03-23T17:23:30;100217.00;;;12.93;35.03
12213;BME280;6169;44.158;22.788;2024-03-23T17:28:33;100261.91;;;12.54;36.40
12213;BME280;6169;44.158;22.788;2024-03-23T17:33:36;100262.72;;;12.45;36.57
12213;BME280;6169;44.158;22.788;2024-03-23T17:38:38;100259.88;;;12.24;37.64
12213;BME280;6169;44.158;22.788;2024-03-23T17:43:40;100266.00;;;11.94;37.99
12213;BME280;6169;44.158;22.788;2024-03-23T17:48:44;100266.25;;;11.92;38.57
12213;BME280;6169;44.158;22.788;2024-03-23T17:53:46;100264.75;;;11.75;39.27
12213;BME280;6169;44.158;22.788;2024-03-23T17:58:48;100258.66;;;12.00;38.70
12213;BME280;6169;44.158;22.788;2024-03-23T18:03:52;100250.16;;;11.59;39.12
12213;BME280;6169;44.158;22.788;2024-03-23T18:08:55;100256.44;;;11.59;39.26
12213;BME280;6169;44.158;22.788;2024-03-23T18:13:57;100239.88;;;12.08;38.25
12213;BME280;6169;44.158;22.788;2024-03-23T18:19:01;100246.19;;;11.39;39.32
12213;BME280;6169;44.158;22.788;2024-03-23T18:24:04;100248.22;;;11.54;39.17
12213;BME280;6169;44.158;22.788;2024-03-23T18:29:06;100239.88;;;11.01;40.36
12213;BME280;6169;44.158;22.788;2024-03-23T18:34:10;100244.75;;;10.99;40.60
12213;BME280;6169;44.158;22.788;2024-03-23T18:39:12;100256.59;;;10.66;41.32
12213;BME280;6169;44.158;22.788;2024-03-23T18:44:14;100242.47;;;10.69;41.28
12213;BME280;6169;44.158;22.788;2024-03-23T18:49:19;100241.34;;;10.65;41.12
12213;BME280;6169;44.158;22.788;2024-03-23T18:54:21;100241.66;;;10.91;40.81
12213;BME280;6169;44.158;22.788;2024-03-23T18:59:23;100201.38;;;11.25;39.27
12213;BME280;6169;44.158;22.788;2024-03-23T19:04:27;100230.66;;;11.40;39.34
12213;BME280;6169;44.158;22.788;2024-03-23T19:09:29;100237.19;;;11.07;39.55
12213;BME280;6169;44.158;22.788;2024-03-23T19:14:32;100233.94;;;11.42;40.55
12213;BME280;6169;44.158;22.788;2024-03-23T19:19:36;100234.66;;;11.00;40.82
12213;BME280;6169;44.158;22.788;2024-03-23T19:24:38;100236.16;;;10.64;43.49
12213;BME280;6169;44.158;22.788;2024-03-23T19:29:40;100232.91;;;10.40;45.00
12213;BME280;6169;44.158;22.788;2024-03-23T19:34:43;100229.72;;;10.04;44.87
12213;BME280;6169;44.158;22.788;2024-03-23T19:39:45;100218.38;;;9.90;44.97
12213;BME280;6169;44.158;22.788;2024-03-23T19:44:47;100226.22;;;9.86;44.69
12213;BME280;6169;44.158;22.788;2024-03-23T19:49:51;100219.47;;;10.11;44.00
12213;BME280;6169;44.158;22.788;2024-03-23T19:54:53;100224.09;;;10.76;42.34
12213;BME280;6169;44.158;22.788;2024-03-23T19:59:55;100231.00;;;10.18;43.30
12213;BME280;6169;44.158;22.788;2024-03-23T20:04:58;100225.47;;;10.35;42.53
12213;BME280;6169;44.158;22.788;2024-03-23T20:10:01;100235.13;;;10.43;43.45
12213;BME280;6169;44.158;22.788;2024-03-23T20:15:04;100226.38;;;10.19;44.66
12213;BME280;6169;44.158;22.788;2024-03-23T20:20:10;100232.50;;;10.09;44.27
12213;BME280;6169;44.158;22.788;2024-03-23T20:25:12;100226.69;;;10.00;44.55
12213;BME280;6169;44.158;22.788;2024-03-23T20:30:14;100222.91;;;9.84;45.52
12213;BME280;6169;44.158;22.788;2024-03-23T20:35:18;100223.00;;;9.89;45.37
12213;BME280;6169;44.158;22.788;2024-03-23T20:40:20;100223.66;;;9.97;45.02
12213;BME280;6169;44.158;22.788;2024-03-23T20:45:22;100215.59;;;9.34;46.99
12213;BME280;6169;44.158;22.788;2024-03-23T20:50:26;100215.44;;;9.58;45.96
12213;BME280;6169;44.158;22.788;2024-03-23T20:55:28;100034.28;;;7.95;47.06
12213;BME280;6169;44.158;22.788;2024-03-23T21:00:31;100216.28;;;8.79;48.17
12213;BME280;6169;44.158;22.788;2024-03-23T21:05:35;100210.66;;;8.69;47.47
12213;BME280;6169;44.158;22.788;2024-03-23T21:10:37;100199.38;;;8.60;48.28
12213;BME280;6169;44.158;22.788;2024-03-23T21:15:45;100204.03;;;8.76;47.68
12213;BME280;6169;44.158;22.788;2024-03-23T21:20:53;100185.97;;;8.53;47.83
12213;BME280;6169;44.158;22.788;2024-03-23T21:25:58;100181.41;;;8.71;46.26
12213;BME280;6169;44.158;22.788;2024-03-23T21:31:03;100178.28;;;8.79;45.24
12213;BME280;6169;44.158;22.788;2024-03-23T21:36:07;100184.63;;;8.16;52.79
12213;BME280;6169;44.158;22.788;2024-03-23T21:41:09;100180.09;;;8.33;52.56
12213;BME280;6169;44.158;22.788;2024-03-23T21:46:11;100180.59;;;7.78;55.41
12213;BME280;6169;44.158;22.788;2024-03-23T21:51:15;100175.88;;;7.73;54.29
12213;BME280;6169;44.158;22.788;2024-03-23T21:56:18;100165.72;;;8.32;53.06
12213;BME280;6169;44.158;22.788;2024-03-23T22:01:20;100161.72;;;7.83;54.03
12213;BME280;6169;44.158;22.788;2024-03-23T22:06:24;100153.66;;;8.11;52.87
12213;BME280;6169;44.158;22.788;2024-03-23T22:11:26;100142.78;;;7.48;54.56
12213;BME280;6169;44.158;22.788;2024-03-23T22:16:28;100153.47;;;6.95;56.89
12213;BME280;6169;44.158;22.788;2024-03-23T22:21:31;100139.34;;;6.51;58.90
12213;BME280;6169;44.158;22.788;2024-03-23T22:26:33;100131.28;;;6.75;59.95
12213;BME280;6169;44.158;22.788;2024-03-23T22:31:35;100125.31;;;6.96;58.73
12213;BME280;6169;44.158;22.788;2024-03-23T22:36:39;100118.84;;;6.97;59.46
12213;BME280;6169;44.158;22.788;2024-03-23T22:41:42;100119.03;;;7.38;57.33
12213;BME280;6169;44.158;22.788;2024-03-23T22:46:44;100115.78;;;7.17;58.23
12213;BME280;6169;44.158;22.788;2024-03-23T22:51:47;100125.94;;;7.69;54.98
12213;BME280;6169;44.158;22.788;2024-03-23T22:56:49;100121.84;;;7.31;56.26
12213;BME280;6169;44.158;22.788;2024-03-23T23:01:51;100121.44;;;7.75;56.33
12213;BME280;6169;44.158;22.788;2024-03-23T23:06:55;100112.72;;;7.73;56.37
12213;BME280;6169;44.158;22.788;2024-03-23T23:11:57;100116.31;;;7.90;55.83
12213;BME280;6169;44.158;22.788;2024-03-23T23:16:59;100116.50;;;7.72;56.02
12213;BME280;6169;44.158;22.788;2024-03-23T23:22:03;100118.56;;;7.93;55.62
12213;BME280;6169;44.158;22.788;2024-03-23T23:27:05;100107.78;;;7.22;58.46
12213;BME280;6169;44.158;22.788;2024-03-23T23:32:07;100105.06;;;6.75;59.53
12213;BME280;6169;44.158;22.788;2024-03-23T23:37:11;100100.22;;;6.77;59.42
12213;BME280;6169;44.158;22.788;2024-03-23T23:42:13;100102.91;;;6.66;60.27
12213;BME280;6169;44.158;22.788;2024-03-23T23:47:16;100085.38;;;6.15;61.44
12213;BME280;6169;44.158;22.788;2024-03-23T23:52:19;100095.22;;;6.09;61.73
12213;BME280;6169;44.158;22.788;2024-03-23T23:57:21;100092.97;;;6.06;61.31
